createdAt,value
2024-04-13T00:01:13.582Z,99196.53
2024-04-13T00:03:42.685Z,99188.84
2024-04-13T00:06:15.139Z,99174.34
2024-04-13T00:08:42.270Z,99168.44
2024-04-13T00:11:12.275Z,99165.94
2024-04-13T00:13:39.643Z,99156.66
2024-04-13T00:16:09.422Z,99147.34
2024-04-13T00:18:36.443Z,99137.16
2024-04-13T00:21:06.397Z,99126.09
2024-04-13T00:23:36.215Z,99121.13
2024-04-13T00:26:06.275Z,99109.19
2024-04-13T00:28:34.679Z,99103.28
2024-04-13T00:31:06.337Z,99100.69
2024-04-13T00:33:35.028Z,99091.38
2024-04-13T00:36:06.735Z,99082.84
2024-04-13T00:38:36.379Z,99085.53
2024-04-13T00:41:06.682Z,99077.03
2024-04-13T00:43:33.697Z,99071.13
2024-04-13T00:46:08.819Z,99072.88
2024-04-13T00:48:38.238Z,99063.44
2024-04-13T00:51:13.548Z,99060.13
2024-04-13T00:53:43.489Z,99058.38
2024-04-13T00:56:15.069Z,99068.72
2024-04-13T00:58:44.559Z,99064.47
2024-04-13T01:01:14.883Z,99063.63
2024-04-13T01:03:45.528Z,99059.31
2024-04-13T01:06:16.178Z,99062.81
2024-04-13T01:08:45.772Z,99065.38
2024-04-13T01:11:16.357Z,99057.72
2024-04-13T01:13:43.558Z,99058.66
2024-04-13T01:16:13.061Z,99059.53
2024-04-13T01:18:41.386Z,99060.41
2024-04-13T01:21:11.431Z,99069.72
2024-04-13T01:23:47.876Z,99070.53
2024-04-13T01:26:21.592Z,99086.03
2024-04-13T01:28:48.574Z,99087.69
2024-04-13T01:31:18.453Z,99104.69
2024-04-13T01:33:45.520Z,99115.84
2024-04-13T01:36:15.203Z,99114.09
2024-04-13T01:38:42.277Z,99118.34
2024-04-13T01:41:11.918Z,99115.75
2024-04-13T01:43:41.533Z,99109.88
2024-04-13T01:46:11.171Z,99109.91
2024-04-13T01:48:39.227Z,99106.50
2024-04-13T01:51:09.055Z,99098.09
2024-04-13T01:53:36.192Z,99093.88
2024-04-13T01:56:07.256Z,99093.09
2024-04-13T01:58:34.206Z,99078.63
2024-04-13T02:01:09.678Z,99066.72
2024-04-13T02:03:37.599Z,99066.84
2024-04-13T02:06:08.050Z,99059.13
2024-04-13T02:08:35.490Z,99049.88
2024-04-13T02:11:05.996Z,99044.72
2024-04-13T02:13:33.436Z,99042.25
2024-04-13T02:16:03.335Z,99049.16
2024-04-13T02:18:33.169Z,99029.47
2024-04-13T02:21:02.964Z,99023.59
2024-04-13T02:23:30.037Z,99011.69
2024-04-13T02:26:01.131Z,99010.91
2024-04-13T02:28:28.110Z,99003.25
2024-04-13T02:30:57.843Z,98995.69
2024-04-13T02:33:25.234Z,98994.03
2024-04-13T02:36:04.682Z,98998.28
2024-04-13T02:38:33.866Z,99005.94
2024-04-13T02:41:05.038Z,99013.59
2024-04-13T02:43:32.639Z,99022.91
2024-04-13T02:46:09.131Z,99038.22
2024-04-13T02:48:36.381Z,99040.81
2024-04-13T02:51:10.104Z,99040.81
2024-04-13T02:53:38.334Z,99050.13
2024-04-13T02:56:08.898Z,99067.28
2024-04-13T02:58:36.302Z,99069.78
2024-04-13T03:01:07.303Z,99080.84
2024-04-13T03:03:34.685Z,99089.34
2024-04-13T03:06:05.502Z,99105.50
2024-04-13T03:08:35.261Z,99127.56
2024-04-13T03:11:06.101Z,99147.16
2024-04-13T03:13:33.198Z,99165.88
2024-04-13T03:16:04.694Z,99179.47
2024-04-13T03:18:31.846Z,99189.72
2024-04-13T03:21:01.769Z,99198.19
2024-04-13T03:23:30.810Z,99196.44
2024-04-13T03:26:03.434Z,99203.31
2024-04-13T03:28:31.276Z,99197.38
2024-04-13T03:31:01.187Z,99200.88
2024-04-13T03:33:28.531Z,99200.03
2024-04-13T03:36:03.549Z,99199.94
2024-04-13T03:38:33.240Z,99199.13
2024-04-13T03:41:07.785Z,99203.44
2024-04-13T03:43:38.313Z,99193.22
2024-04-13T03:46:06.280Z,99200.13
2024-04-13T03:48:39.619Z,99195.78
2024-04-13T03:51:07.913Z,99196.72
2024-04-13T03:53:37.711Z,99192.47
2024-04-13T03:56:07.768Z,99200.22
2024-04-13T03:58:38.153Z,99195.03
2024-04-13T04:01:06.250Z,99206.13
2024-04-13T04:03:36.660Z,99207.78
2024-04-13T04:06:06.041Z,99223.09
2024-04-13T04:08:36.320Z,99239.38
2024-04-13T04:11:03.445Z,99252.09
2024-04-13T04:13:35.668Z,99259.72
2024-04-13T04:16:02.651Z,99275.94
2024-04-13T04:18:32.446Z,99288.78
2024-04-13T04:20:59.487Z,99296.38
2024-04-13T04:23:29.143Z,99306.72
2024-04-13T04:25:56.232Z,99311.78
2024-04-13T04:28:25.845Z,99313.47
2024-04-13T04:30:55.548Z,99321.94
2024-04-13T04:33:25.788Z,99323.63
2024-04-13T04:35:53.697Z,99334.78
2024-04-13T04:38:24.377Z,99340.78
2024-04-13T04:40:51.382Z,99344.16
2024-04-13T04:43:20.985Z,99350.16
2024-04-13T04:45:47.986Z,99353.56
2024-04-13T04:48:20.353Z,99364.63
2024-04-13T04:50:57.350Z,99367.97
2024-04-13T04:53:28.194Z,99377.41
2024-04-13T04:55:55.874Z,99382.59
2024-04-13T04:58:25.536Z,99385.91
2024-04-13T05:00:52.672Z,99392.75
2024-04-13T05:03:26.347Z,99398.81
2024-04-13T05:05:53.490Z,99404.75
2024-04-13T05:08:23.100Z,99413.25
2024-04-13T05:10:50.089Z,99418.34
2024-04-13T05:13:20.386Z,99425.19
2024-04-13T05:15:47.386Z,99437.09
2024-04-13T05:18:17.212Z,99444.78
2024-04-13T05:20:46.935Z,99455.88
2024-04-13T05:23:17.548Z,99477.22
2024-04-13T05:25:44.581Z,99484.84
2024-04-13T05:28:14.163Z,99509.56
2024-04-13T05:30:46.741Z,99524.94
2024-04-13T05:33:16.506Z,99540.19
2024-04-13T05:35:47.552Z,99570.06
2024-04-13T05:38:17.247Z,99582.78
2024-04-13T05:40:44.347Z,99612.72
2024-04-13T05:43:14.010Z,99626.34
2024-04-13T05:45:41.147Z,99639.94
2024-04-13T05:48:11.418Z,99658.69
2024-04-13T05:50:39.229Z,99673.09
2024-04-13T05:53:11.508Z,99691.09
2024-04-13T05:55:40.799Z,99700.34
2024-04-13T05:58:13.697Z,99721.81
2024-04-13T06:00:41.108Z,99740.53
2024-04-13T06:03:10.790Z,99764.34
2024-04-13T06:05:40.993Z,99785.75
2024-04-13T06:08:14.398Z,99799.38
2024-04-13T06:10:41.753Z,99819.03
2024-04-13T06:13:11.299Z,99841.19
2024-04-13T06:15:39.342Z,99873.66
2024-04-13T06:18:09.190Z,99891.50
2024-04-13T06:20:36.210Z,99913.66
2024-04-13T06:23:05.838Z,99948.78
2024-04-13T06:25:35.528Z,99979.53
2024-04-13T06:28:05.165Z,99987.19
2024-04-13T06:30:32.222Z,99999.97
2024-04-13T06:33:01.932Z,100015.31
2024-04-13T06:35:28.939Z,100023.84
2024-04-13T06:37:58.456Z,100039.25
2024-04-13T06:40:25.563Z,100069.19
2024-04-13T06:42:57.848Z,100101.69
2024-04-13T06:45:25.264Z,100145.25
2024-04-13T06:47:54.871Z,100188.88
2024-04-13T06:50:21.916Z,100243.50
2024-04-13T06:52:51.569Z,100293.13
2024-04-13T06:55:18.694Z,100341.81
2024-04-13T06:57:48.337Z,100394.06
2024-04-13T07:00:18.510Z,100432.47
2024-04-13T07:02:48.743Z,100471.94
2024-04-13T07:05:15.909Z,100500.22
2024-04-13T07:07:45.456Z,100519.03
2024-04-13T07:10:12.458Z,100548.16
2024-04-13T07:12:42.096Z,100588.44
2024-04-13T07:15:09.906Z,100614.97
2024-04-13T07:17:42.255Z,100654.38
2024-04-13T07:20:09.817Z,100684.38
2024-04-13T07:22:39.535Z,100710.06
2024-04-13T07:25:06.804Z,100747.84
2024-04-13T07:27:36.668Z,100787.19
2024-04-13T07:30:04.359Z,100834.41
2024-04-13T07:32:34.038Z,100874.75
2024-04-13T07:35:05.031Z,100908.16
2024-04-13T07:37:35.089Z,100934.72
2024-04-13T07:40:02.057Z,100963.00
2024-04-13T07:42:31.734Z,101003.38
2024-04-13T07:44:58.678Z,101050.63
2024-04-13T07:47:28.397Z,101090.97
2024-04-13T07:49:55.430Z,101127.06
2024-04-13T07:52:27.636Z,101158.84
2024-04-13T07:54:54.592Z,101195.81
2024-04-13T07:57:24.361Z,101233.63
2024-04-13T07:59:51.365Z,101262.78
2024-04-13T08:02:21.052Z,101304.94
2024-04-13T08:04:48.260Z,101346.22
2024-04-13T08:07:17.874Z,101389.19
2024-04-13T08:09:47.607Z,101446.03
2024-04-13T08:12:17.213Z,101495.91
2024-04-13T08:14:44.348Z,101533.78
2024-04-13T08:17:14.647Z,101568.25
2024-04-13T08:19:41.841Z,101603.59
2024-04-13T08:22:11.444Z,101625.97
2024-04-13T08:24:38.474Z,101656.03
2024-04-13T08:27:10.937Z,101694.06
2024-04-13T08:29:38.493Z,101712.06
2024-04-13T08:32:08.657Z,101735.38
2024-04-13T08:34:35.630Z,101767.16
2024-04-13T08:37:05.296Z,101803.38
2024-04-13T08:39:32.360Z,101851.72
2024-04-13T08:42:07.833Z,101895.69
2024-04-13T08:44:38.294Z,101945.72
2024-04-13T08:47:09.667Z,101987.16
2024-04-13T08:49:40.903Z,102014.69
2024-04-13T08:52:11.393Z,102050.06
2024-04-13T08:54:38.599Z,102059.53
2024-04-13T08:57:09.977Z,102075.91
2024-04-13T08:59:41.298Z,102088.88
2024-04-13T09:02:17.276Z,102140.72
2024-04-13T09:04:44.448Z,102177.00
2024-04-13T09:07:14.653Z,102218.47
2024-04-13T09:09:41.919Z,102227.94
2024-04-13T09:12:11.756Z,102243.53
2024-04-13T09:14:42.064Z,102265.06
2024-04-13T09:17:12.038Z,102288.44
2024-04-13T09:19:39.068Z,102324.69
2024-04-13T09:22:10.587Z,102361.00
2024-04-13T09:24:41.219Z,102393.88
2024-04-13T09:27:18.106Z,102418.09
2024-04-13T09:29:48.418Z,102421.56
2024-04-13T09:32:26.671Z,102447.47
2024-04-13T09:34:55.578Z,102477.69
2024-04-13T09:37:26.026Z,102502.81
2024-04-13T09:40:01.585Z,102508.88
2024-04-13T09:42:31.944Z,102514.06
2024-04-13T09:45:06.904Z,102529.63
2024-04-13T09:47:37.112Z,102510.53
2024-04-13T09:50:05.255Z,102496.69
2024-04-13T09:52:35.943Z,102466.31
2024-04-13T09:57:33.393Z,102513.03
2024-04-13T10:00:02.490Z,102526.03
2024-04-13T10:02:37.968Z,102557.13
2024-04-13T10:05:05.796Z,102586.56
2024-04-13T10:07:37.489Z,102614.28
2024-04-13T10:10:07.402Z,102645.41
2024-04-13T10:12:41.171Z,102662.75
2024-04-13T10:15:10.299Z,102693.91
2024-04-13T10:17:44.831Z,102702.53
2024-04-13T10:20:11.960Z,102714.66
2024-04-13T10:22:41.620Z,102738.91
2024-04-13T10:25:09.375Z,102770.09
2024-04-13T10:27:41.570Z,102780.50
2024-04-13T10:30:09.266Z,102768.28
2024-04-13T10:32:48.817Z,102771.75
2024-04-13T10:35:20.650Z,102771.75
2024-04-13T10:37:50.286Z,102816.78
2024-04-13T10:40:25.368Z,102857.53
2024-04-13T10:42:54.991Z,102887.88
2024-04-13T10:45:22.141Z,102891.34
2024-04-13T10:47:54.663Z,102893.88
2024-04-13T10:50:21.496Z,102902.56
2024-04-13T10:52:51.109Z,102923.28
2024-04-13T10:55:20.019Z,102931.09
2024-04-13T10:57:50.664Z,102904.19
2024-04-13T11:00:19.263Z,102905.03
2024-04-13T11:02:51.382Z,102922.31
2024-04-13T11:05:22.178Z,102957.03
2024-04-13T11:07:52.811Z,102977.00
2024-04-13T11:10:20.319Z,102981.28
2024-04-13T11:12:52.217Z,102999.44
2024-04-13T11:15:20.607Z,103015.09
2024-04-13T11:17:51.118Z,103030.66
2024-04-13T11:20:18.367Z,103042.78
2024-04-13T11:22:50.707Z,103058.41
2024-04-13T11:25:19.617Z,103102.66
2024-04-13T11:27:49.893Z,103144.34
2024-04-13T11:30:18.810Z,103133.84
2024-04-13T11:32:48.925Z,103123.47
2024-04-13T11:35:17.228Z,103100.00
2024-04-13T11:38:01.615Z,103111.28
2024-04-13T11:40:30.965Z,103106.03
2024-04-13T11:43:01.195Z,103107.75
2024-04-13T11:45:28.565Z,103116.34
2024-04-13T11:47:58.651Z,103120.69
2024-04-13T11:50:25.866Z,103147.59
2024-04-13T11:52:56.406Z,103164.88
2024-04-13T11:55:29.727Z,103188.25
2024-04-13T11:57:59.417Z,103155.25
2024-04-13T12:00:26.523Z,103148.28
2024-04-13T12:02:57.668Z,103143.94
2024-04-13T12:05:24.765Z,103151.75
2024-04-13T12:07:54.578Z,103202.00
2024-04-13T12:10:21.885Z,103265.50
2024-04-13T12:12:54.257Z,103281.97
2024-04-13T12:15:21.352Z,103293.22
2024-04-13T12:17:51.036Z,103335.00
2024-04-13T12:20:18.108Z,103378.44
2024-04-13T12:22:47.751Z,103377.53
2024-04-13T12:25:14.852Z,103376.63
2024-04-13T12:27:44.553Z,103356.56
2024-04-13T12:30:14.949Z,103319.13
2024-04-13T12:32:44.808Z,103280.00
2024-04-13T12:35:12.534Z,103271.25
2024-04-13T12:37:42.216Z,103259.91
2024-04-13T12:40:10.222Z,103255.56
2024-04-13T12:42:39.940Z,103239.88
2024-04-13T12:45:07.179Z,103241.56
2024-04-13T12:47:40.066Z,103247.63
2024-04-13T12:50:07.822Z,103258.03
2024-04-13T12:52:37.834Z,103239.75
2024-04-13T12:55:05.382Z,103233.59
2024-04-13T12:57:35.122Z,103268.38
2024-04-13T13:00:04.058Z,103296.97
2024-04-13T13:02:33.941Z,103315.22
2024-04-13T13:05:03.895Z,103290.88
2024-04-13T13:07:33.767Z,103277.78
2024-04-13T13:10:00.990Z,103269.13
2024-04-13T13:12:30.779Z,103291.66
2024-04-13T13:14:57.741Z,103283.84
2024-04-13T13:17:28.047Z,103282.91
2024-04-13T13:19:55.315Z,103244.63
2024-04-13T13:22:27.530Z,103201.97
2024-04-13T13:24:54.572Z,103201.97
2024-04-13T13:27:24.291Z,103230.66
2024-04-13T13:29:51.533Z,103261.00
2024-04-13T13:32:21.177Z,103258.28
2024-04-13T13:34:48.215Z,103249.59
2024-04-13T13:37:17.875Z,103273.03
2024-04-13T13:39:47.541Z,103333.03
2024-04-13T13:42:17.182Z,103364.31
2024-04-13T13:44:44.217Z,103387.72
2024-04-13T13:47:13.850Z,103372.91
2024-04-13T13:49:40.819Z,103379.84
2024-04-13T13:52:10.448Z,103389.34
2024-04-13T13:54:37.468Z,103394.56
2024-04-13T13:57:10.557Z,103391.09
2024-04-13T13:59:37.634Z,103402.34
2024-04-13T14:02:07.673Z,103392.75
2024-04-13T14:04:34.739Z,103347.47
2024-04-13T14:07:04.460Z,103311.78
2024-04-13T14:09:33.270Z,103306.56
2024-04-13T14:12:02.870Z,103303.91
2024-04-13T14:14:32.585Z,103296.94
2024-04-13T14:17:02.290Z,103277.75
2024-04-13T14:19:29.561Z,103273.34
2024-04-13T14:21:59.212Z,103287.22
2024-04-13T14:24:27.576Z,103317.66
2024-04-13T14:26:57.240Z,103346.38
2024-04-13T14:29:24.345Z,103380.22
2024-04-13T14:31:56.580Z,103407.13
2024-04-13T14:34:23.629Z,103434.09
2024-04-13T14:36:53.357Z,103435.78
2024-04-13T14:39:20.473Z,103446.28
2024-04-13T14:41:50.183Z,103422.69
2024-04-13T14:44:17.290Z,103378.28
2024-04-13T14:46:48.433Z,103346.97
2024-04-13T14:49:18.140Z,103320.78
2024-04-13T14:51:47.878Z,103329.50
2024-04-13T14:54:14.957Z,103372.91
2024-04-13T14:56:45.874Z,103425.16
2024-04-13T14:59:12.883Z,103478.22
2024-04-13T15:01:43.087Z,103472.97
2024-04-13T15:04:10.550Z,103453.72
2024-04-13T15:06:42.957Z,103478.97
2024-04-13T15:09:09.960Z,103459.81
2024-04-13T15:11:39.575Z,103415.38
2024-04-13T15:14:06.565Z,103365.72
2024-04-13T15:16:36.343Z,103349.13
2024-04-13T15:19:03.678Z,103338.66
2024-04-13T15:21:33.406Z,103342.94
2024-04-13T15:24:03.149Z,103355.13
2024-04-13T15:26:32.852Z,103388.19
2024-04-13T15:29:00.199Z,103407.28
2024-04-13T15:31:30.322Z,103418.59
2024-04-13T15:33:57.396Z,103405.50
2024-04-13T15:36:27.245Z,103384.53
2024-04-13T15:38:54.311Z,103359.31
2024-04-13T15:41:26.651Z,103328.78
2024-04-13T15:43:53.743Z,103322.66
2024-04-13T15:46:23.403Z,103314.84
2024-04-13T15:48:50.502Z,103326.03
2024-04-13T15:51:20.225Z,103316.50
2024-04-13T15:53:47.204Z,103296.47
2024-04-13T15:56:16.803Z,103297.31
2024-04-13T15:58:46.440Z,103312.97
2024-04-13T16:01:16.175Z,103285.94
2024-04-13T16:03:43.334Z,103259.75
2024-04-13T16:06:13.070Z,103232.81
2024-04-13T16:08:40.079Z,103214.56
2024-04-13T16:11:09.888Z,103184.91
2024-04-13T16:13:38.101Z,103168.38
2024-04-13T16:16:18.411Z,103118.78
2024-04-13T16:18:50.910Z,103084.94
2024-04-13T16:21:20.651Z,103046.53
2024-04-13T16:23:47.769Z,103039.63
2024-04-13T16:26:17.466Z,103028.34
2024-04-13T16:28:44.440Z,103012.66
2024-04-13T16:31:16.734Z,102996.13
2024-04-13T16:33:43.767Z,102964.81
2024-04-13T16:36:13.441Z,102950.03
2024-04-13T16:38:40.569Z,102929.13
2024-04-13T16:41:10.439Z,102924.78
2024-04-13T16:43:37.446Z,102920.44
2024-04-13T16:46:07.360Z,102891.69
2024-04-13T16:48:37.296Z,102876.09
2024-04-13T16:51:07.150Z,102853.53
2024-04-13T16:53:36.021Z,102828.31
2024-04-13T16:56:07.265Z,102815.28
2024-04-13T16:58:34.434Z,102793.53
2024-04-13T17:01:04.255Z,102784.91
2024-04-13T17:03:31.406Z,102767.44
2024-04-13T17:06:03.768Z,102757.88
2024-04-13T17:08:30.758Z,102747.44
2024-04-13T17:11:00.422Z,102733.56
2024-04-13T17:13:27.500Z,102717.09
2024-04-13T17:15:57.207Z,102691.88
2024-04-13T17:18:24.445Z,102666.75
2024-04-13T17:20:54.472Z,102641.53
2024-04-13T17:23:24.132Z,102629.47
2024-04-13T17:25:54.606Z,102591.19
2024-04-13T17:28:21.707Z,102569.47
2024-04-13T17:30:51.433Z,102553.94
2024-04-13T17:33:18.544Z,102524.38
2024-04-13T17:35:49.800Z,102491.47
2024-04-13T17:38:17.083Z,102466.31
2024-04-13T17:40:49.294Z,102445.56
2024-04-13T17:43:16.266Z,102413.44
2024-04-13T17:45:45.868Z,102382.31
2024-04-13T17:48:12.997Z,102346.78
2024-04-13T17:50:42.606Z,102319.03
2024-04-13T17:53:10.675Z,102286.13
2024-04-13T17:55:40.306Z,102259.25
2024-04-13T17:58:10.107Z,102221.19
2024-04-13T18:00:40.240Z,102186.63
2024-04-13T18:03:07.320Z,102154.59
2024-04-13T18:05:37.053Z,102130.34
2024-04-13T18:08:05.618Z,102094.00
2024-04-13T18:10:35.308Z,102049.03
2024-04-13T18:13:02.404Z,102015.38
2024-04-13T18:15:34.745Z,101982.53
2024-04-13T18:18:01.704Z,101946.16
2024-04-13T18:20:31.473Z,101919.41
2024-04-13T18:22:58.442Z,101874.47
2024-04-13T18:25:28.209Z,101826.06
2024-04-13T18:27:55.483Z,101776.13
2024-04-13T18:30:25.142Z,101728.63
2024-04-13T18:32:54.907Z,101684.66
2024-04-13T18:35:24.652Z,101639.72
2024-04-13T18:37:52.947Z,101604.41
2024-04-13T18:40:22.684Z,101570.78
2024-04-13T18:42:49.768Z,101545.78
2024-04-13T18:45:21.037Z,101525.09
2024-04-13T18:47:48.554Z,101476.75
2024-04-13T18:50:20.964Z,101448.34
2024-04-13T18:52:47.775Z,101416.44
2024-04-13T18:55:20.707Z,101393.22
2024-04-13T18:57:47.746Z,101362.31
2024-04-13T19:00:18.735Z,101321.78
2024-04-13T19:02:46.739Z,101279.63
2024-04-13T19:05:16.457Z,101246.13
2024-04-13T19:07:46.135Z,101209.03
2024-04-13T19:10:15.914Z,101185.81
2024-04-13T19:12:43.026Z,101159.16
2024-04-13T19:15:13.520Z,101131.75
2024-04-13T19:17:41.059Z,101089.53
2024-04-13T19:20:11.223Z,101062.06
2024-04-13T19:22:38.168Z,101030.31
2024-04-13T19:25:10.648Z,100986.44
2024-04-13T19:27:37.690Z,100946.00
2024-04-13T19:30:11.687Z,100910.78
2024-04-13T19:32:38.830Z,100864.50
2024-04-13T19:35:08.636Z,100822.31
2024-04-13T19:37:35.786Z,100800.06
2024-04-13T19:40:07.792Z,100779.50
2024-04-13T19:42:37.602Z,100747.69
2024-04-13T19:45:08.320Z,100722.03
2024-04-13T19:47:35.473Z,100692.00
2024-04-13T19:50:05.948Z,100660.22
2024-04-13T19:52:33.110Z,100625.06
2024-04-13T19:55:03.180Z,100596.81
2024-04-13T19:57:30.456Z,100566.81
2024-04-13T20:00:06.049Z,100534.22
2024-04-13T20:02:34.029Z,100499.13
2024-04-13T20:05:05.616Z,100473.50
2024-04-13T20:07:32.809Z,100446.09
2024-04-13T20:10:02.601Z,100417.72
2024-04-13T20:12:29.716Z,100381.78
2024-04-13T20:15:18.126Z,100364.75
2024-04-13T20:18:02.905Z,100352.84
2024-04-13T20:20:32.574Z,100333.91
2024-04-13T20:23:02.293Z,100320.25
2024-04-13T20:25:36.638Z,100310.06
2024-04-13T20:28:06.461Z,100290.34
2024-04-13T20:30:38.850Z,100286.91
2024-04-13T20:33:06.098Z,100288.66
2024-04-13T20:35:35.749Z,100283.47
2024-04-13T20:38:03.109Z,100289.59
2024-04-13T20:40:32.810Z,100270.72
2024-04-13T20:43:01.495Z,100262.97
2024-04-13T20:45:31.194Z,100256.19
2024-04-13T20:48:00.925Z,100248.56
2024-04-13T20:50:30.635Z,100232.28
2024-04-13T20:53:01.586Z,100209.16
2024-04-13T20:55:32.023Z,100202.34
2024-04-13T20:57:59.178Z,100189.59
2024-04-13T21:00:31.461Z,100169.91
2024-04-13T21:03:01.265Z,100158.81
2024-04-13T21:05:34.452Z,100142.56
2024-04-13T21:08:01.965Z,100123.72
2024-04-13T21:10:32.368Z,100110.97
2024-04-13T21:13:01.466Z,100099.88
2024-04-13T21:15:36.126Z,100076.75
2024-04-13T21:18:07.946Z,100065.78
2024-04-13T21:20:38.322Z,100041.75
2024-04-13T21:23:05.549Z,100026.47
2024-04-13T21:25:39.491Z,100008.53
2024-04-13T21:28:08.127Z,99998.41
2024-04-13T21:30:39.177Z,99978.72
2024-04-13T21:33:09.084Z,99956.44
2024-04-13T21:35:38.956Z,99947.16
2024-04-13T21:38:05.953Z,99933.44
2024-04-13T21:40:35.588Z,99918.94
2024-04-13T21:43:03.452Z,99911.31
2024-04-13T21:45:33.191Z,99900.94
2024-04-13T21:48:00.427Z,99907.03
2024-04-13T21:50:32.780Z,99912.22
2024-04-13T21:53:00.678Z,99910.41
2024-04-13T21:55:30.290Z,99924.22
2024-04-13T21:57:58.211Z,99936.16
2024-04-13T22:00:28.252Z,99941.28
2024-04-13T22:06:38.755Z,99952.44
2024-04-13T22:09:08.736Z,99952.44
2024-04-13T22:11:38.784Z,99949.06
2024-04-13T22:14:05.789Z,99944.78
2024-04-13T22:16:35.430Z,99942.28
2024-04-13T22:19:03.269Z,99943.13
2024-04-13T22:21:33.095Z,99955.94
2024-04-13T22:24:03.159Z,99961.06
2024-04-13T22:26:33.539Z,99977.38
2024-04-13T22:29:00.568Z,99980.81
2024-04-13T22:31:30.120Z,99984.31
2024-04-13T22:33:57.227Z,99990.19
2024-04-13T22:36:32.339Z,100005.63
2024-04-13T22:38:59.494Z,100029.56
2024-04-13T22:41:31.837Z,100040.72
2024-04-13T22:43:58.904Z,100039.78
2024-04-13T22:46:28.494Z,100040.72
2024-04-13T22:48:55.564Z,100028.78
2024-04-13T22:51:25.337Z,100015.06
2024-04-13T22:53:52.386Z,100000.66
2024-04-13T22:56:22.059Z,99987.84
2024-04-13T22:58:51.692Z,99973.34
2024-04-13T23:01:21.620Z,99959.72
2024-04-13T23:03:48.751Z,99945.94
2024-04-13T23:06:18.414Z,99926.34
2024-04-13T23:08:45.442Z,99922.97
2024-04-13T23:11:15.109Z,99916.22
2024-04-13T23:13:44.176Z,99902.47
2024-04-13T23:16:16.564Z,99889.84
2024-04-13T23:18:43.748Z,99882.97
2024-04-13T23:21:13.365Z,99882.13
2024-04-13T23:23:40.338Z,99885.56
2024-04-13T23:26:10.031Z,99887.25
2024-04-13T23:28:37.000Z,99898.38
2024-04-13T23:31:06.930Z,99899.19
2024-04-13T23:33:36.657Z,99910.41
2024-04-13T23:36:06.623Z,99909.53
2024-04-13T23:38:33.740Z,99913.84
2024-04-13T23:41:03.517Z,99911.25
2024-04-13T23:43:30.623Z,99910.50
2024-04-13T23:46:04.576Z,99901.88
2024-04-13T23:48:31.740Z,99903.72
2024-04-13T23:51:05.216Z,99882.28
2024-04-13T23:53:33.373Z,99875.50
2024-04-13T23:56:03.058Z,99861.88
2024-04-13T23:58:30.999Z,99855.09
